createdAt,value
2022-11-29T00:01:54.211Z,16.80
2022-11-29T00:04:22.823Z,15.90
2022-11-29T00:06:51.353Z,15.80
2022-11-29T00:09:19.810Z,12.20
2022-11-29T00:12:06.665Z,15.10
2022-11-29T00:14:35.283Z,17.20
2022-11-29T00:17:04.621Z,15.60
2022-11-29T00:19:36.374Z,16.30
2022-11-29T00:22:05.397Z,16.80
2022-11-29T00:24:34.756Z,15.40
2022-11-29T00:27:03.401Z,16.20
2022-11-29T00:29:32.188Z,10.20
2022-11-29T00:32:00.722Z,15.80
2022-11-29T00:34:29.378Z,14.80
2022-11-29T00:36:59.168Z,17.00
2022-11-29T00:39:27.769Z,18.00
2022-11-29T00:41:56.492Z,16.80
2022-11-29T00:44:25.001Z,16.30
2022-11-29T00:46:53.583Z,16.80
2022-11-29T00:49:22.170Z,17.50
2022-11-29T00:51:50.869Z,17.50
2022-11-29T00:54:19.310Z,17.60
2022-11-29T00:56:47.846Z,16.90
2022-11-29T00:59:16.476Z,17.20
2022-11-29T01:01:45.151Z,10.20
2022-11-29T01:04:13.752Z,17.70
2022-11-29T01:06:42.529Z,13.20
2022-11-29T01:09:11.046Z,17.70
2022-11-29T01:11:39.536Z,17.50
2022-11-29T01:14:08.128Z,17.10
2022-11-29T01:16:36.834Z,15.10
2022-11-29T01:19:07.445Z,15.60
2022-11-29T01:21:36.208Z,16.60
2022-11-29T01:24:05.080Z,18.10
2022-11-29T01:26:36.816Z,17.10
2022-11-29T01:29:05.459Z,17.50
2022-11-29T01:31:38.211Z,17.30
2022-11-29T01:34:07.778Z,17.80
2022-11-29T01:36:36.280Z,16.30
2022-11-29T01:39:06.587Z,6.30
2022-11-29T01:41:37.963Z,17.90
2022-11-29T01:44:26.679Z,18.20
2022-11-29T01:46:56.908Z,17.80
2022-11-29T01:49:45.540Z,17.00
2022-11-29T01:52:24.273Z,16.40
2022-11-29T01:54:58.575Z,17.60
2022-11-29T01:57:27.473Z,16.70
2022-11-29T02:00:08.838Z,16.30
2022-11-29T02:03:09.381Z,15.90
2022-11-29T02:05:49.497Z,16.00
2022-11-29T02:08:43.690Z,17.10
2022-11-29T02:11:31.951Z,17.10
2022-11-29T02:14:40.224Z,16.00
2022-11-29T02:17:54.068Z,16.90
2022-11-29T02:20:28.501Z,17.10
2022-11-29T02:23:19.587Z,17.20
2022-11-29T02:26:22.208Z,13.40
2022-11-29T02:29:40.724Z,12.10
2022-11-29T02:32:52.683Z,16.90
2022-11-29T02:35:36.366Z,16.80
2022-11-29T02:38:23.063Z,12.00
2022-11-29T02:41:00.431Z,12.00
2022-11-29T02:43:58.226Z,14.70
2022-11-29T02:46:57.716Z,8.60
2022-11-29T02:49:50.439Z,15.50
2022-11-29T02:52:27.674Z,8.20
2022-11-29T02:55:09.364Z,12.00
2022-11-29T02:57:50.628Z,15.30
2022-11-29T03:00:22.035Z,16.20
2022-11-29T03:03:14.752Z,11.30
2022-11-29T03:06:17.187Z,16.10
2022-11-29T03:09:06.353Z,9.30
2022-11-29T03:12:32.348Z,11.00
2022-11-29T03:15:22.371Z,12.00
2022-11-29T03:18:34.668Z,12.70
2022-11-29T03:21:27.437Z,13.20
2022-11-29T03:24:01.564Z,14.30
2022-11-29T03:26:39.436Z,13.40
2022-11-29T03:29:30.605Z,11.60
2022-11-29T03:32:34.301Z,15.40
2022-11-29T03:35:08.071Z,16.20
2022-11-29T03:38:21.401Z,15.60
2022-11-29T03:41:10.282Z,16.80
2022-11-29T03:44:10.396Z,15.30
2022-11-29T03:47:07.092Z,16.50
2022-11-29T03:49:49.859Z,15.30
2022-11-29T03:55:52.815Z,16.00
2022-11-29T03:58:21.369Z,18.00
2022-11-29T04:00:49.814Z,16.80
2022-11-29T04:04:01.325Z,17.30
2022-11-29T04:07:14.915Z,17.40
2022-11-29T04:10:17.690Z,17.90
2022-11-29T04:13:26.631Z,15.60
2022-11-29T04:16:22.609Z,18.40
2022-11-29T04:19:15.507Z,18.60
2022-11-29T04:22:07.685Z,16.00
2022-11-29T04:24:54.753Z,13.90
2022-11-29T04:27:41.726Z,14.30
2022-11-29T04:30:19.502Z,14.10
2022-11-29T04:33:33.474Z,15.10
2022-11-29T04:36:51.715Z,15.30
2022-11-29T04:39:42.171Z,12.50
2022-11-29T04:42:45.354Z,16.10
2022-11-29T04:45:38.185Z,15.20
2022-11-29T04:51:31.683Z,15.50
2022-11-29T04:54:15.367Z,15.60
2022-11-29T04:56:51.196Z,15.00
2022-11-29T04:59:37.016Z,15.40
2022-11-29T05:02:32.546Z,15.90
2022-11-29T05:05:07.585Z,17.40
2022-11-29T05:08:24.391Z,17.90
2022-11-29T05:11:04.216Z,18.50
2022-11-29T05:14:13.585Z,16.10
2022-11-29T05:17:09.074Z,16.90
2022-11-29T05:19:55.985Z,16.80
2022-11-29T05:22:47.068Z,15.60
2022-11-29T05:25:46.176Z,17.60
2022-11-29T05:28:41.712Z,16.00
2022-11-29T05:31:25.164Z,13.80
2022-11-29T05:34:12.367Z,15.20
2022-11-29T05:37:17.515Z,16.10
2022-11-29T05:40:39.784Z,16.10
2022-11-29T05:43:30.082Z,14.20
2022-11-29T05:46:36.660Z,21.30
2022-11-29T05:49:23.524Z,20.20
2022-11-29T05:52:16.369Z,18.90
2022-11-29T05:55:07.080Z,16.90
2022-11-29T06:02:02.146Z,18.10
2022-11-29T06:05:14.826Z,17.10
2022-11-29T06:08:16.636Z,17.80
2022-11-29T06:11:34.351Z,17.00
2022-11-29T06:14:08.203Z,16.80
2022-11-29T06:19:40.826Z,17.20
2022-11-29T06:22:46.676Z,15.80
2022-11-29T06:25:38.436Z,16.90
2022-11-29T06:29:02.807Z,16.30
2022-11-29T06:31:51.176Z,12.70
2022-11-29T06:34:27.581Z,17.30
2022-11-29T06:37:28.464Z,15.20
2022-11-29T06:40:04.346Z,20.60
2022-11-29T06:42:36.382Z,23.10
2022-11-29T06:45:16.617Z,19.80
2022-11-29T06:48:02.780Z,21.00
2022-11-29T06:51:13.280Z,18.90
2022-11-29T06:54:08.973Z,18.80
2022-11-29T06:57:20.576Z,15.90
2022-11-29T06:59:57.523Z,17.50
2022-11-29T07:03:26.988Z,18.70
2022-11-29T07:05:57.537Z,9.00
2022-11-29T07:08:26.725Z,15.80
2022-11-29T07:10:56.268Z,16.90
2022-11-29T07:13:32.263Z,21.80
2022-11-29T07:16:57.319Z,19.90
2022-11-29T07:20:18.840Z,17.60
2022-11-29T07:23:11.789Z,19.60
2022-11-29T07:26:18.142Z,16.50
2022-11-29T07:29:32.915Z,15.40
2022-11-29T07:35:21.768Z,14.80
2022-11-29T07:38:06.738Z,14.20
2022-11-29T07:40:57.067Z,16.00
2022-11-29T07:44:23.872Z,17.10
2022-11-29T07:46:52.548Z,16.00
2022-11-29T07:49:21.161Z,16.90
2022-11-29T07:51:51.271Z,18.40
2022-11-29T07:54:20.200Z,16.50
2022-11-29T07:56:48.918Z,18.40
2022-11-29T07:59:17.751Z,13.70
2022-11-29T08:01:46.551Z,13.70
2022-11-29T08:04:16.659Z,14.80
2022-11-29T08:06:46.531Z,16.10
2022-11-29T08:09:15.327Z,15.00
2022-11-29T08:14:59.944Z,15.70
2022-11-29T08:20:59.021Z,13.60
2022-11-29T08:23:27.612Z,12.90
2022-11-29T08:26:04.169Z,12.90
2022-11-29T08:28:59.406Z,21.30
2022-11-29T08:31:28.248Z,13.30
2022-11-29T08:34:07.126Z,14.20
2022-11-29T08:36:35.795Z,15.00
2022-11-29T08:39:09.287Z,14.50
2022-11-29T08:41:38.574Z,15.60
2022-11-29T08:44:07.873Z,9.10
2022-11-29T08:46:54.867Z,12.90
2022-11-29T08:49:23.702Z,14.20
2022-11-29T08:52:13.796Z,12.40
2022-11-29T08:54:44.062Z,13.90
2022-11-29T09:00:01.700Z,13.60
2022-11-29T09:02:30.377Z,21.00
2022-11-29T09:05:08.784Z,11.30
2022-11-29T09:07:39.007Z,10.40
2022-11-29T09:10:09.765Z,7.00
2022-11-29T09:12:40.726Z,10.60
2022-11-29T09:15:14.276Z,11.00
2022-11-29T09:17:42.929Z,11.50
2022-11-29T09:22:04.976Z,11.20
2022-11-29T09:27:47.822Z,10.20
2022-11-29T09:32:52.467Z,10.30
2022-11-29T09:35:23.635Z,11.40
2022-11-29T09:38:21.666Z,10.70
2022-11-29T09:41:55.024Z,8.60
2022-11-29T09:45:01.226Z,10.70
2022-11-29T09:52:56.404Z,9.40
2022-11-29T09:56:26.937Z,10.30
2022-11-29T09:59:54.457Z,10.10
2022-11-29T10:06:39.542Z,15.70
2022-11-29T10:09:56.912Z,11.50
2022-11-29T10:12:46.838Z,11.10
2022-11-29T10:15:26.027Z,9.60
2022-11-29T10:18:16.531Z,11.50
2022-11-29T10:24:22.100Z,12.30
2022-11-29T10:27:01.637Z,10.00
2022-11-29T10:29:32.100Z,14.10
2022-11-29T10:32:09.978Z,12.50
2022-11-29T10:34:54.228Z,12.30
2022-11-29T10:37:25.689Z,15.50
2022-11-29T10:40:06.597Z,14.80
2022-11-29T10:42:52.682Z,11.90
2022-11-29T10:46:07.055Z,11.80
2022-11-29T10:48:44.704Z,12.20
2022-11-29T10:51:26.350Z,12.00
2022-11-29T10:54:43.376Z,12.50
2022-11-29T10:58:32.297Z,9.20
2022-11-29T11:01:08.037Z,10.50
2022-11-29T11:03:39.540Z,11.30
2022-11-29T11:06:43.487Z,9.40
2022-11-29T11:09:47.412Z,10.20
2022-11-29T11:12:16.259Z,9.80
2022-11-29T11:14:47.419Z,9.40
2022-11-29T11:17:22.862Z,9.70
2022-11-29T11:20:01.219Z,12.30
2022-11-29T11:24:10.910Z,11.30
2022-11-29T11:26:50.908Z,11.30
2022-11-29T11:32:37.399Z,9.20
2022-11-29T11:35:24.612Z,10.40
2022-11-29T11:37:57.787Z,15.30
2022-11-29T11:40:30.647Z,10.30
2022-11-29T11:43:03.604Z,10.20
2022-11-29T11:45:39.093Z,9.40
2022-11-29T11:48:26.336Z,9.60
2022-11-29T11:50:59.748Z,8.80
2022-11-29T11:53:36.571Z,9.90
2022-11-29T11:56:21.771Z,9.30
2022-11-29T11:58:58.648Z,10.30
2022-11-29T12:01:40.091Z,9.10
2022-11-29T12:04:26.332Z,9.60
2022-11-29T12:08:21.255Z,8.20
2022-11-29T12:12:04.198Z,9.40
2022-11-29T12:15:28.579Z,7.80
2022-11-29T12:19:10.528Z,7.80
2022-11-29T12:21:45.287Z,5.50
2022-11-29T12:24:28.888Z,8.90
2022-11-29T12:27:31.495Z,8.70
2022-11-29T12:30:01.248Z,7.30
2022-11-29T12:32:40.201Z,6.60
2022-11-29T12:35:35.281Z,8.80
2022-11-29T12:41:54.688Z,6.30
2022-11-29T12:44:45.248Z,7.40
2022-11-29T12:47:48.925Z,5.20
2022-11-29T12:51:05.383Z,5.80
2022-11-29T12:54:12.861Z,6.80
2022-11-29T12:57:40.852Z,6.20
2022-11-29T13:00:19.276Z,6.80
2022-11-29T13:03:34.135Z,5.60
2022-11-29T13:06:40.579Z,5.30
2022-11-29T13:09:53.820Z,7.50
2022-11-29T13:15:17.407Z,5.50
2022-11-29T13:18:20.059Z,6.20
2022-11-29T13:21:04.797Z,7.40
2022-11-29T13:24:09.099Z,7.40
2022-11-29T13:26:41.649Z,7.50
2022-11-29T13:29:16.902Z,7.00
2022-11-29T13:31:48.067Z,6.30
2022-11-29T13:34:52.595Z,7.40
2022-11-29T13:37:41.492Z,5.90
2022-11-29T13:40:58.770Z,6.90
2022-11-29T13:43:49.356Z,5.20
2022-11-29T13:46:39.384Z,6.30
2022-11-29T13:49:58.378Z,8.40
2022-11-29T13:52:35.599Z,8.20
2022-11-29T13:55:23.667Z,8.60
2022-11-29T13:58:16.643Z,9.00
2022-11-29T14:00:46.027Z,8.90
2022-11-29T14:03:26.213Z,8.20
2022-11-29T14:06:28.430Z,8.60
2022-11-29T14:11:54.582Z,6.10
2022-11-29T14:14:32.089Z,6.50
2022-11-29T14:17:34.131Z,7.00
2022-11-29T14:20:44.081Z,7.90
2022-11-29T14:23:12.627Z,10.30
2022-11-29T14:25:59.333Z,10.10
2022-11-29T14:28:39.263Z,9.60
2022-11-29T14:31:09.922Z,8.80
2022-11-29T14:34:10.098Z,9.50
2022-11-29T14:36:50.230Z,8.50
2022-11-29T14:39:50.360Z,9.80
2022-11-29T14:42:22.129Z,10.50
2022-11-29T14:45:04.872Z,11.60
2022-11-29T14:47:48.259Z,12.30
2022-11-29T14:50:33.120Z,13.20
2022-11-29T14:53:27.598Z,14.90
2022-11-29T14:56:31.888Z,13.90
2022-11-29T14:59:54.910Z,13.90
2022-11-29T15:02:48.798Z,11.10
2022-11-29T15:05:24.706Z,14.50
2022-11-29T15:08:19.373Z,12.10
2022-11-29T15:10:57.696Z,12.80
2022-11-29T15:13:33.438Z,15.40
2022-11-29T15:16:19.779Z,15.10
2022-11-29T15:18:54.138Z,15.80
2022-11-29T15:22:04.105Z,19.40
2022-11-29T15:24:32.760Z,15.30
2022-11-29T15:27:04.156Z,17.30
2022-11-29T15:29:32.701Z,14.10
2022-11-29T15:32:06.055Z,13.50
2022-11-29T15:34:40.586Z,14.10
2022-11-29T15:37:50.816Z,14.10
2022-11-29T15:40:23.237Z,12.90
2022-11-29T15:45:37.576Z,10.10
2022-11-29T15:48:28.234Z,12.50
2022-11-29T15:51:02.690Z,11.60
2022-11-29T15:54:00.379Z,12.10
2022-11-29T15:56:49.241Z,14.20
2022-11-29T15:59:49.159Z,12.90
2022-11-29T16:02:32.875Z,12.80
2022-11-29T16:05:22.611Z,13.70
2022-11-29T16:07:57.574Z,8.70
2022-11-29T16:10:43.664Z,8.80
2022-11-29T16:13:40.374Z,15.80
2022-11-29T16:16:19.336Z,12.20
2022-11-29T16:18:50.001Z,10.80
2022-11-29T16:21:29.383Z,10.30
2022-11-29T16:23:59.308Z,8.60
2022-11-29T16:26:33.650Z,9.70
2022-11-29T16:29:02.972Z,10.70
2022-11-29T16:31:38.437Z,10.80
2022-11-29T16:34:33.926Z,10.70
2022-11-29T16:37:14.588Z,11.30
2022-11-29T16:39:48.322Z,11.10
2022-11-29T16:42:25.903Z,13.20
2022-11-29T16:44:54.801Z,12.30
2022-11-29T16:47:26.891Z,12.80
2022-11-29T16:50:14.678Z,10.20
2022-11-29T16:52:43.609Z,14.50
2022-11-29T16:55:13.122Z,14.20
2022-11-29T16:57:41.965Z,11.50
2022-11-29T17:00:31.835Z,12.50
2022-11-29T17:03:00.790Z,13.00
2022-11-29T17:05:30.526Z,12.70
2022-11-29T17:07:59.358Z,13.40
2022-11-29T17:10:29.048Z,15.80
2022-11-29T17:12:57.616Z,16.00
2022-11-29T17:15:26.202Z,14.60
2022-11-29T17:17:54.743Z,11.10
2022-11-29T17:20:23.457Z,12.60
2022-11-29T17:22:54.834Z,11.50
2022-11-29T17:25:23.459Z,11.90
2022-11-29T17:27:52.033Z,7.30
2022-11-29T17:30:20.728Z,8.70
2022-11-29T17:32:49.218Z,9.00
2022-11-29T17:35:17.836Z,10.00
2022-11-29T17:37:46.496Z,8.50
2022-11-29T17:40:15.898Z,8.40
2022-11-29T17:42:44.392Z,8.30
2022-11-29T17:45:12.970Z,9.50
2022-11-29T17:47:41.412Z,8.30
2022-11-29T17:50:10.825Z,8.40
2022-11-29T17:52:39.925Z,10.70
2022-11-29T17:55:09.481Z,9.10
2022-11-29T17:57:38.064Z,11.20
2022-11-29T18:00:09.057Z,12.20
2022-11-29T18:02:37.925Z,11.70
2022-11-29T18:05:07.365Z,9.70
2022-11-29T18:07:55.952Z,9.70
2022-11-29T18:10:27.246Z,12.00
2022-11-29T18:12:56.505Z,9.90
2022-11-29T18:15:25.098Z,8.10
2022-11-29T18:17:53.632Z,9.60
2022-11-29T18:20:22.100Z,9.50
2022-11-29T18:22:53.496Z,12.00
2022-11-29T18:25:39.505Z,6.90
2022-11-29T18:28:08.811Z,8.80
2022-11-29T18:30:37.398Z,10.80
2022-11-29T18:33:06.153Z,10.40
2022-11-29T18:35:34.723Z,12.00
2022-11-29T18:38:18.371Z,9.10
2022-11-29T18:40:47.132Z,8.70
2022-11-29T18:43:17.034Z,12.00
2022-11-29T18:45:45.665Z,10.50
2022-11-29T18:48:14.237Z,9.50
2022-11-29T18:50:42.750Z,12.20
2022-11-29T18:53:11.336Z,10.30
2022-11-29T18:55:39.942Z,9.40
2022-11-29T18:58:08.536Z,9.40
2022-11-29T19:00:41.249Z,10.80
2022-11-29T19:03:10.317Z,13.20
2022-11-29T19:05:38.990Z,11.40
2022-11-29T19:08:08.160Z,12.50
2022-11-29T19:10:38.910Z,10.30
2022-11-29T19:13:08.640Z,10.50
2022-11-29T19:15:37.404Z,10.50
2022-11-29T19:18:06.296Z,12.50
2022-11-29T19:20:34.863Z,11.90
2022-11-29T19:23:03.991Z,8.70
2022-11-29T19:25:37.544Z,9.60
2022-11-29T19:28:33.589Z,10.60
2022-11-29T19:31:05.500Z,11.50
2022-11-29T19:33:37.018Z,8.50
2022-11-29T19:36:12.330Z,6.10
2022-11-29T19:38:43.299Z,12.30
2022-11-29T19:41:24.011Z,10.20
2022-11-29T19:43:54.544Z,9.40
2022-11-29T19:46:30.493Z,9.80
2022-11-29T19:49:06.279Z,9.80
2022-11-29T19:51:37.963Z,10.50
2022-11-29T19:54:09.382Z,8.00
2022-11-29T19:56:41.842Z,8.50
2022-11-29T19:59:13.035Z,9.50
2022-11-29T20:01:46.665Z,10.70
2022-11-29T20:04:17.452Z,9.60
2022-11-29T20:06:47.840Z,12.30
2022-11-29T20:09:16.591Z,10.60
2022-11-29T20:11:52.596Z,10.90
2022-11-29T20:14:21.700Z,12.50
2022-11-29T20:16:50.454Z,10.20
2022-11-29T20:19:20.763Z,9.20
2022-11-29T20:21:49.468Z,10.10
2022-11-29T20:24:19.593Z,11.40
2022-11-29T20:26:49.523Z,9.90
2022-11-29T20:29:19.415Z,10.50
2022-11-29T20:31:51.007Z,8.40
2022-11-29T20:34:20.997Z,10.90
2022-11-29T20:37:40.327Z,10.10
2022-11-29T20:40:47.601Z,10.90
2022-11-29T20:43:45.146Z,11.00
2022-11-29T20:46:18.570Z,9.10
2022-11-29T20:49:00.429Z,9.30
2022-11-29T20:51:47.001Z,9.10
2022-11-29T20:54:18.433Z,7.90
2022-11-29T20:56:47.022Z,8.80
2022-11-29T20:59:15.664Z,10.60
2022-11-29T21:01:48.104Z,7.40
2022-11-29T21:04:23.669Z,8.10
2022-11-29T21:06:52.507Z,8.40
2022-11-29T21:09:21.200Z,8.80
2022-11-29T21:11:50.143Z,9.00
2022-11-29T21:14:22.179Z,8.80
2022-11-29T21:16:51.815Z,8.40
2022-11-29T21:19:27.724Z,10.30
2022-11-29T21:22:17.555Z,11.10
2022-11-29T21:25:18.038Z,7.40
2022-11-29T21:27:47.646Z,4.10
2022-11-29T21:30:23.455Z,10.00
2022-11-29T21:32:52.796Z,10.20
2022-11-29T21:35:24.971Z,11.10
2022-11-29T21:38:02.637Z,10.90
2022-11-29T21:40:32.527Z,9.00
2022-11-29T21:43:01.123Z,10.90
2022-11-29T21:45:29.866Z,11.20
2022-11-29T21:48:01.526Z,11.70
2022-11-29T21:53:41.285Z,6.50
2022-11-29T21:56:12.456Z,8.20
2022-11-29T21:58:41.161Z,8.70
2022-11-29T22:04:33.271Z,12.40
2022-11-29T22:07:02.094Z,9.00
2022-11-29T22:09:32.037Z,12.90
2022-11-29T22:12:04.041Z,8.80
2022-11-29T22:17:14.923Z,10.90
2022-11-29T22:19:46.026Z,6.20
2022-11-29T22:22:14.433Z,7.80
2022-11-29T22:24:43.017Z,9.00
2022-11-29T22:27:11.609Z,8.20
2022-11-29T22:29:40.222Z,9.00
2022-11-29T22:32:08.861Z,7.90
2022-11-29T22:34:39.265Z,7.40
2022-11-29T22:37:10.278Z,8.80
2022-11-29T22:39:38.839Z,9.90
2022-11-29T22:42:08.884Z,10.50
2022-11-29T22:44:38.234Z,12.40
2022-11-29T22:47:06.865Z,10.20
2022-11-29T22:49:40.721Z,10.00
2022-11-29T22:52:11.444Z,10.60
2022-11-29T22:54:40.327Z,12.00
2022-11-29T22:57:08.796Z,13.40
2022-11-29T22:59:37.164Z,12.50
2022-11-29T23:02:06.886Z,9.20
2022-11-29T23:04:37.395Z,9.90
2022-11-29T23:07:08.456Z,7.70
2022-11-29T23:09:36.935Z,11.60
2022-11-29T23:12:05.754Z,7.50
2022-11-29T23:14:34.123Z,11.70
2022-11-29T23:17:03.819Z,7.20
2022-11-29T23:19:32.319Z,10.90
2022-11-29T23:22:00.821Z,7.70
2022-11-29T23:24:29.944Z,8.30
2022-11-29T23:26:58.370Z,13.80
2022-11-29T23:29:26.859Z,14.90
2022-11-29T23:31:55.399Z,8.60
2022-11-29T23:34:23.929Z,9.30
2022-11-29T23:36:53.219Z,8.20
2022-11-29T23:39:22.085Z,12.70
2022-11-29T23:41:50.570Z,8.20
2022-11-29T23:44:19.030Z,14.70
2022-11-29T23:46:47.507Z,9.70
2022-11-29T23:49:15.917Z,7.90
2022-11-29T23:51:44.423Z,10.70
2022-11-29T23:54:12.899Z,9.70
2022-11-29T23:56:41.399Z,11.70
2022-11-29T23:59:09.897Z,12.50
